Time;durP1;ratioP1;P1;durP2;ratioP2;P2;SDS_P1;SDS_P2;PMS_P1;PMS_P2;Temp;Humidity;BMP_temperature;BMP_pressure;BME280_temperature;BME280_humidity;BME280_pressure;Samples;Min_cycle;Max_cycle;Signal;HPM_P1;HPM_P2
2021/08/02 00:00:07;;;;;;;;;2.50;1.75;;;;;23.45;43.16;100899.06;5058155;28;45268;-55
2021/08/02 00:02:52;;;;;;;;;3.50;3.00;;;;;23.45;43.26;100904.38;5058319;28;45799;-55
2021/08/02 00:05:23;;;;;;;;;1.00;1.00;;;;;23.45;43.23;100895.59;5058461;28;45387;-55
2021/08/02 00:08:00;;;;;;;;;2.00;2.00;;;;;23.44;43.37;100896.53;5058462;28;45313;-58
2021/08/02 00:10:34;;;;;;;;;2.00;2.00;;;;;23.44;43.14;100891.25;5058353;28;45380;-58
2021/08/02 00:13:05;;;;;;;;;2.75;2.00;;;;;23.44;43.51;100902.66;5040376;28;45565;-58
2021/08/02 00:15:31;;;;;;;;;2.75;2.75;;;;;23.44;43.59;100889.44;5058511;28;45427;-55
2021/08/02 00:17:57;;;;;;;;;2.00;2.00;;;;;23.43;43.63;100886.91;5058519;28;45563;-57
2021/08/02 00:20:28;;;;;;;;;2.50;2.00;;;;;23.44;43.83;100892.09;5057774;28;46849;-55
2021/08/02 00:22:55;;;;;;;;;3.00;2.00;;;;;23.43;43.26;100893.03;5058119;28;45351;-59
2021/08/02 00:25:20;;;;;;;;;2.00;2.00;;;;;23.42;43.46;100896.66;5058053;28;45484;-59
2021/08/02 00:27:46;;;;;;;;;2.25;2.25;;;;;23.43;43.42;100906.25;5058272;28;45522;-56
2021/08/02 00:30:12;;;;;;;;;3.50;2.00;;;;;23.42;43.44;100894.00;5057761;28;46299;-59
2021/08/02 00:32:37;;;;;;;;;1.75;1.75;;;;;23.42;43.53;100894.00;5039703;28;45786;-55
2021/08/02 00:35:04;;;;;;;;;2.75;2.00;;;;;23.40;43.62;100901.19;5058238;28;45366;-57
2021/08/02 00:37:38;;;;;;;;;2.00;1.25;;;;;23.40;43.60;100901.19;5058442;28;45576;-58
2021/08/02 00:40:38;;;;;;;;;2.00;2.00;;;;;23.41;43.52;100902.91;5057752;28;45230;-57
2021/08/02 00:43:22;;;;;;;;;3.00;1.00;;;;;23.41;43.72;100902.91;5057903;28;45690;-50
2021/08/02 00:45:50;;;;;;;;;2.00;2.00;;;;;23.41;43.87;100902.91;5057908;28;45254;-58
2021/08/02 00:48:26;;;;;;;;;1.75;1.75;;;;;23.41;43.86;100899.38;5040060;28;45470;-55
2021/08/02 00:50:52;;;;;;;;;2.50;2.00;;;;;23.40;43.80;100900.34;5057522;28;46576;-56
2021/08/02 00:53:27;;;;;;;;;2.50;2.00;;;;;23.41;43.74;100900.25;5057361;28;45321;-56
2021/08/02 00:55:58;;;;;;;;;3.00;2.00;;;;;23.42;43.86;100906.38;5057453;28;45367;-57
2021/08/02 00:58:27;;;;;;;;;2.00;2.00;;;;;23.39;43.72;100899.50;5057855;28;45843;-55
2021/08/02 01:00:54;;;;;;;;;2.50;2.50;;;;;23.40;43.98;100897.69;5057177;28;45912;-57
2021/08/02 01:03:20;;;;;;;;;2.25;2.00;;;;;23.39;43.56;100901.28;5057344;28;45245;-56
2021/08/02 01:05:49;;;;;;;;;2.25;2.25;;;;;23.39;43.81;100902.16;5056803;28;45225;-58
2021/08/02 01:08:21;;;;;;;;;2.50;2.50;;;;;23.39;43.69;100896.84;5057508;28;45522;-52
2021/08/02 01:10:50;;;;;;;;;2.00;2.00;;;;;23.38;43.80;100889.00;5057381;28;46632;-55
2021/08/02 01:13:17;;;;;;;;;3.00;3.00;;;;;23.38;44.09;100891.66;5057234;28;45859;-55
2021/08/02 01:15:54;;;;;;;;;2.00;2.00;;;;;23.39;43.92;100893.34;5057431;28;45371;-57
2021/08/02 01:18:21;;;;;;;;;3.50;3.00;;;;;23.39;44.13;100899.50;5057402;28;45404;-55
2021/08/02 01:20:49;;;;;;;;;3.00;3.00;;;;;23.38;44.07;100897.81;5056727;28;46279;-50
2021/08/02 01:23:16;;;;;;;;;2.75;2.25;;;;;23.37;43.86;100896.09;5057027;28;45340;-54
2021/08/02 01:25:41;;;;;;;;;3.50;3.00;;;;;23.37;43.99;100898.75;5057184;28;45428;-55
2021/08/02 01:28:13;;;;;;;;;2.33;2.33;;;;;23.37;43.99;100901.41;5057199;28;45335;-54
2021/08/02 01:30:38;;;;;;;;;2.50;2.50;;;;;23.37;44.08;100901.41;5056934;28;46169;-54
2021/08/02 01:33:04;;;;;;;;;2.00;2.00;;;;;23.37;44.56;100906.69;5057082;28;45300;-54
2021/08/02 01:35:29;;;;;;;;;2.25;2.25;;;;;23.38;44.26;100894.28;5056657;28;45440;-52
2021/08/02 01:37:56;;;;;;;;;5.00;3.50;;;;;23.37;44.24;100900.56;5057200;28;45323;-58
2021/08/02 01:40:22;;;;;;;;;3.50;2.25;;;;;23.37;44.38;100901.41;5056616;28;47603;-51
2021/08/02 01:42:47;;;;;;;;;4.75;4.00;;;;;23.36;44.14;100902.34;5056707;28;45256;-59
2021/08/02 01:45:13;;;;;;;;;5.00;3.00;;;;;23.35;43.96;100905.09;5038551;28;45300;-53
2021/08/02 01:48:04;;;;;;;;;2.00;2.00;;;;;23.36;44.32;100904.97;5056833;28;45494;-55
2021/08/02 01:51:09;;;;;;;;;3.75;2.25;;;;;23.36;44.51;100902.34;5056579;28;46081;-53
2021/08/02 01:53:55;;;;;;;;;2.50;1.75;;;;;23.37;44.47;100895.28;5025891;28;45425;-54
2021/08/02 01:56:23;;;;;;;;;2.50;2.00;;;;;23.35;44.22;100895.34;5025255;28;45403;-56
2021/08/02 01:59:00;;;;;;;;;3.00;3.00;;;;;23.35;44.30;100900.63;5056774;28;45522;-51
2021/08/02 02:01:26;;;;;;;;;4.00;2.00;;;;;23.35;44.19;100902.44;5056261;28;45355;-49
2021/08/02 02:03:54;;;;;;;;;3.75;3.00;;;;;23.36;44.19;100910.28;5056417;28;45426;-51
2021/08/02 02:06:27;;;;;;;;;3.00;3.00;;;;;23.35;44.40;100903.28;5056555;28;45387;-52
2021/08/02 02:08:58;;;;;;;;;2.00;2.00;;;;;23.35;44.46;100903.28;5056414;28;45462;-49
2021/08/02 02:11:25;;;;;;;;;2.25;2.25;;;;;23.36;44.48;100901.50;5056380;28;45332;-53
2021/08/02 02:13:55;;;;;;;;;3.75;2.50;;;;;23.36;44.45;100898.88;5056243;28;45341;-46
2021/08/02 02:16:21;;;;;;;;;3.50;3.50;;;;;23.36;44.37;100904.97;5056436;28;45290;-46
2021/08/02 02:18:53;;;;;;;;;2.50;2.50;;;;;23.37;44.32;100900.56;5055570;28;45518;-49
2021/08/02 02:21:22;;;;;;;;;3.00;3.00;;;;;23.36;44.92;100899.69;5037800;28;47095;-54
2021/08/02 02:23:48;;;;;;;;;2.00;1.75;;;;;23.37;44.59;100903.22;5056193;28;45649;-47
2021/08/02 02:26:15;;;;;;;;;3.25;3.25;;;;;23.36;44.73;100899.69;5056235;28;45651;-59
2021/08/02 02:28:41;;;;;;;;;4.25;3.00;;;;;23.35;44.53;100895.34;5056366;28;45367;-57
2021/08/02 02:31:08;;;;;;;;;2.00;2.00;;;;;23.36;44.29;100898.88;5056286;28;45379;-57
2021/08/02 02:33:34;;;;;;;;;4.00;4.00;;;;;23.36;44.45;100893.56;5055816;28;45814;-56
2021/08/02 02:36:02;;;;;;;;;4.75;3.25;;;;;23.36;44.50;100894.41;5055919;28;45396;-58
2021/08/02 02:38:28;;;;;;;;;4.50;3.50;;;;;23.36;44.50;100894.41;5056375;28;45551;-56
2021/08/02 02:40:54;;;;;;;;;0.00;0.00;;;;;23.37;44.60;100900.56;5055972;28;46272;-53
2021/08/02 02:43:20;;;;;;;;;3.00;3.00;;;;;23.36;44.74;100902.34;5055800;28;45331;-58
2021/08/02 02:45:47;;;;;;;;;2.50;2.50;;;;;23.38;44.66;100904.88;5055874;28;45325;-57
2021/08/02 02:48:14;;;;;;;;;4.00;2.50;;;;;23.38;45.01;100905.75;5038017;28;45514;-57
2021/08/02 02:50:44;;;;;;;;;4.25;3.75;;;;;23.39;44.56;100906.56;5037763;28;46331;-51
2021/08/02 02:53:11;;;;;;;;;6.00;3.00;;;;;23.39;44.66;100899.50;5055779;28;45670;-52
2021/08/02 02:55:37;;;;;;;;;3.00;3.00;;;;;23.39;44.79;100904.78;5056330;28;45438;-57
2021/08/02 02:58:03;;;;;;;;;3.00;3.00;;;;;23.40;44.68;100901.19;5055967;28;45628;-53
2021/08/02 03:00:29;;;;;;;;;4.50;4.00;;;;;23.41;44.45;100900.25;5055532;28;46152;-58
2021/08/02 03:02:57;;;;;;;;;2.00;2.00;;;;;23.41;44.65;100907.31;5055629;28;45923;-57
2021/08/02 03:05:25;;;;;;;;;3.25;3.00;;;;;23.39;44.58;100907.44;5055729;28;45283;-56
2021/08/02 03:07:54;;;;;;;;;3.75;3.25;;;;;23.42;44.49;100907.25;5055982;28;45236;-56
2021/08/02 03:10:22;;;;;;;;;3.75;3.75;;;;;23.42;44.67;100901.94;5055452;28;46503;-54
2021/08/02 03:12:48;;;;;;;;;2.75;2.75;;;;;23.40;44.71;100898.56;5055418;28;45392;-56
2021/08/02 03:15:14;;;;;;;;;4.50;2.75;;;;;23.42;44.55;100901.09;5037775;28;45359;-53
2021/08/02 03:17:39;;;;;;;;;5.00;3.75;;;;;23.41;44.52;100905.53;5055734;28;45266;-56
2021/08/02 03:20:05;;;;;;;;;5.25;4.00;;;;;23.41;44.52;100904.69;5055448;28;45412;-59
2021/08/02 03:22:37;;;;;;;;;3.25;3.25;;;;;23.42;44.75;100907.25;5055352;28;45435;-51
2021/08/02 03:25:22;;;;;;;;;3.25;2.75;;;;;23.41;44.74;100905.53;5055615;28;45333;-56
2021/08/02 03:27:51;;;;;;;;;4.00;3.25;;;;;23.42;44.67;100906.38;5055819;28;45408;-56
2021/08/02 03:30:16;;;;;;;;;3.00;3.00;;;;;23.42;44.75;100907.25;5058228;28;45304;-56
2021/08/02 03:32:45;;;;;;;;;3.25;2.25;;;;;23.42;44.50;100907.25;5059096;28;45423;-57
2021/08/02 03:35:13;;;;;;;;;3.75;3.75;;;;;23.43;44.62;100911.56;5059220;28;45486;-57
2021/08/02 03:37:41;;;;;;;;;3.75;3.75;;;;;23.44;44.83;100920.34;5059295;28;45541;-59
2021/08/02 03:40:09;;;;;;;;;3.25;3.25;;;;;23.44;44.83;100915.88;5058530;28;46328;-56
2021/08/02 03:42:39;;;;;;;;;3.00;3.00;;;;;23.43;44.73;100919.47;5058637;28;45361;-57
2021/08/02 03:45:06;;;;;;;;;3.00;3.00;;;;;23.44;44.69;100923.84;5058706;28;45228;-50
2021/08/02 03:47:31;;;;;;;;;3.25;3.00;;;;;23.44;44.62;100921.19;5058731;28;45662;-56
2021/08/02 03:49:57;;;;;;;;;4.25;4.25;;;;;23.44;44.88;100923.84;5040451;28;47024;-58
2021/08/02 03:52:22;;;;;;;;;2.00;2.00;;;;;23.43;44.70;100924.78;5058447;28;45503;-56
2021/08/02 03:54:47;;;;;;;;;4.00;4.00;;;;;23.44;44.94;100928.28;5058439;28;45825;-51
2021/08/02 03:57:14;;;;;;;;;4.25;3.75;;;;;23.43;45.08;100924.78;5059011;28;45602;-53
2021/08/02 03:59:40;;;;;;;;;2.00;2.00;;;;;23.43;45.02;100930.06;5058394;28;46172;-50
2021/08/02 04:02:05;;;;;;;;;2.50;2.00;;;;;23.43;44.68;100932.72;5040206;28;45994;-55
2021/08/02 04:04:31;;;;;;;;;3.25;3.00;;;;;23.44;44.68;100939.69;5058510;28;45454;-52
2021/08/02 04:06:56;;;;;;;;;3.00;3.00;;;;;23.44;44.74;100938.88;5058424;28;45577;-49
2021/08/02 04:09:21;;;;;;;;;3.50;3.50;;;;;23.44;44.74;100945.00;5057869;28;46272;-53
2021/08/02 04:11:47;;;;;;;;;3.25;3.25;;;;;23.44;44.74;100949.44;5057996;28;45442;-53
2021/08/02 04:14:13;;;;;;;;;3.00;3.00;;;;;23.44;45.19;100952.09;5058581;28;45281;-58
2021/08/02 04:16:39;;;;;;;;;6.50;3.75;;;;;23.44;45.17;100950.28;5058403;28;45230;-55
2021/08/02 04:19:05;;;;;;;;;4.50;3.75;;;;;23.43;44.82;100953.88;5057983;28;45416;-56
2021/08/02 04:21:31;;;;;;;;;4.50;3.75;;;;;23.41;44.74;100961.09;5057942;28;45589;-54
2021/08/02 04:23:56;;;;;;;;;5.00;3.75;;;;;23.39;45.08;100962.09;5058094;28;45254;-57
2021/08/02 04:26:22;;;;;;;;;0.25;0.25;;;;;23.39;45.10;100967.41;5040107;28;45553;-47
2021/08/02 04:28:55;;;;;;;;;5.00;3.50;;;;;23.37;45.44;100970.16;5057862;28;46235;-52
2021/08/02 04:31:21;;;;;;;;;3.75;3.00;;;;;23.35;45.55;100965.94;5057401;28;45306;-56
2021/08/02 04:33:46;;;;;;;;;3.75;3.75;;;;;23.33;45.56;100971.28;5057942;28;45393;-56
2021/08/02 04:36:12;;;;;;;;;3.00;3.00;;;;;23.30;45.46;100964.41;5058394;28;45272;-53
2021/08/02 04:38:37;;;;;;;;;3.25;3.25;;;;;23.28;45.34;100965.47;5057448;28;46178;-53
2021/08/02 04:41:02;;;;;;;;;4.00;4.00;;;;;23.26;45.49;100956.78;5056363;28;45569;-51
2021/08/02 04:43:28;;;;;;;;;3.50;3.50;;;;;23.24;45.48;100958.69;5057893;28;45868;-54
2021/08/02 04:45:53;;;;;;;;;8.00;3.25;;;;;23.23;45.53;100959.63;5057850;28;45679;-52
2021/08/02 04:48:18;;;;;;;;;2.75;2.75;;;;;23.20;45.77;100949.28;5057401;28;46078;-52
2021/08/02 04:50:45;;;;;;;;;5.00;3.00;;;;;23.19;45.57;100953.69;5057919;28;45403;-46
2021/08/02 04:53:11;;;;;;;;;3.75;3.75;;;;;23.17;45.91;100958.19;5057661;28;45317;-56
2021/08/02 04:55:37;;;;;;;;;3.00;3.00;;;;;23.16;45.76;100956.50;5057871;28;45314;-48
2021/08/02 04:58:03;;;;;;;;;5.00;3.00;;;;;23.15;45.54;100955.66;5057416;28;46255;-49
2021/08/02 05:00:28;;;;;;;;;3.50;3.50;;;;;23.16;45.59;100956.50;5057445;28;45523;-46
2021/08/02 05:02:53;;;;;;;;;4.75;4.00;;;;;23.15;45.65;100958.31;5057757;28;45364;-57
2021/08/02 05:05:19;;;;;;;;;5.00;3.25;;;;;23.16;45.62;100957.34;5039394;28;45315;-59
2021/08/02 05:07:44;;;;;;;;;3.25;3.25;;;;;23.15;45.36;100958.31;5057474;28;45690;-59
2021/08/02 05:10:10;;;;;;;;;4.50;2.75;;;;;23.16;45.86;100964.44;5057070;28;45390;-53
2021/08/02 05:12:35;;;;;;;;;2.00;2.00;;;;;23.16;45.37;100961.78;5057258;28;45431;-56
2021/08/02 05:15:06;;;;;;;;;5.25;3.50;;;;;23.15;45.74;100963.59;5057635;28;45567;-59
2021/08/02 05:17:31;;;;;;;;;3.50;3.50;;;;;23.15;45.42;100970.69;5057147;28;46670;-59
2021/08/02 05:19:57;;;;;;;;;5.25;4.00;;;;;23.15;45.48;100965.41;5057258;28;45764;-60
2021/08/02 05:22:22;;;;;;;;;4.00;3.25;;;;;23.15;45.48;100971.53;5039080;28;45628;-58
2021/08/02 05:24:47;;;;;;;;;2.00;2.00;;;;;23.15;45.47;100968.88;5057282;28;45739;-50
2021/08/02 05:27:13;;;;;;;;;3.00;3.00;;;;;23.15;45.63;100965.41;5057081;28;46728;-60
2021/08/02 05:29:38;;;;;;;;;4.25;3.50;;;;;23.15;45.43;100974.16;5057109;28;45367;-56
2021/08/02 05:32:04;;;;;;;;;4.50;3.50;;;;;23.15;45.40;100974.16;5056987;28;45285;-50
2021/08/02 05:34:29;;;;;;;;;2.25;2.25;;;;;23.15;45.53;100971.53;5057183;28;45541;-52
2021/08/02 05:36:54;;;;;;;;;4.00;3.25;;;;;23.15;45.62;100971.53;5056884;28;46177;-56
2021/08/02 05:39:20;;;;;;;;;3.00;2.00;;;;;23.14;45.60;100969.81;5056650;28;45391;-51
2021/08/02 05:41:45;;;;;;;;;4.00;4.00;;;;;23.15;45.92;100968.88;5057387;28;45290;-56
2021/08/02 05:44:10;;;;;;;;;7.00;3.75;;;;;23.15;45.60;100978.63;5057173;28;45303;-53
2021/08/02 05:46:36;;;;;;;;;2.75;2.75;;;;;23.15;45.79;100975.97;5056477;28;45392;-49
2021/08/02 05:49:01;;;;;;;;;5.75;2.25;;;;;23.15;45.77;100975.97;5055679;28;45352;-52
2021/08/02 05:51:26;;;;;;;;;2.75;2.75;;;;;23.14;45.81;100980.41;5056600;28;45305;-52
2021/08/02 05:53:52;;;;;;;;;4.50;4.50;;;;;23.14;45.81;100980.41;5056712;28;45301;-56
2021/08/02 05:56:17;;;;;;;;;4.50;3.00;;;;;23.15;45.60;100991.84;5056894;28;46243;-54
2021/08/02 05:58:43;;;;;;;;;5.50;5.00;;;;;23.14;45.75;100985.69;5056478;28;45416;-54
2021/08/02 06:01:08;;;;;;;;;3.00;3.00;;;;;23.14;45.76;100990.97;5056545;28;45400;-58
2021/08/02 06:03:34;;;;;;;;;4.00;4.00;;;;;23.15;45.62;100991.84;5056670;28;45366;-57
2021/08/02 06:06:00;;;;;;;;;5.00;2.00;;;;;23.14;45.83;100988.34;5056187;28;45475;-54
2021/08/02 06:08:25;;;;;;;;;3.00;3.00;;;;;23.15;46.07;100994.47;5056380;28;45376;-60
2021/08/02 06:10:51;;;;;;;;;4.75;3.00;;;;;23.14;45.82;100990.97;5056597;28;45330;-56
2021/08/02 06:13:16;;;;;;;;;2.75;2.75;;;;;23.14;45.84;100990.13;5038846;28;45590;-58
2021/08/02 06:15:41;;;;;;;;;3.25;3.25;;;;;23.14;46.11;100984.84;5056169;28;46375;-57
2021/08/02 06:18:07;;;;;;;;;4.75;3.75;;;;;23.14;45.88;100992.78;5056276;28;45513;-59
2021/08/02 06:20:32;;;;;;;;;4.50;3.75;;;;;23.15;45.94;100991.84;5056176;28;45458;-59
2021/08/02 06:22:57;;;;;;;;;5.50;4.00;;;;;23.15;45.70;100992.66;5056263;28;45306;-59
2021/08/02 06:25:23;;;;;;;;;2.50;2.50;;;;;23.15;46.04;100992.66;5055861;28;45915;-56
2021/08/02 06:27:48;;;;;;;;;3.00;3.00;;;;;23.13;46.28;100991.91;5056444;28;45388;-53
2021/08/02 06:30:14;;;;;;;;;5.25;4.00;;;;;23.09;45.74;100993.06;5056374;28;45367;-58
2021/08/02 06:32:39;;;;;;;;;3.00;3.00;;;;;23.06;45.92;100998.56;5056322;28;45566;-56
2021/08/02 06:35:05;;;;;;;;;2.25;2.25;;;;;23.03;46.09;101001.38;5056112;28;45338;-57
2021/08/02 06:37:30;;;;;;;;;4.00;3.00;;;;;22.99;46.09;101002.50;5056135;28;45248;-58
2021/08/02 06:39:56;;;;;;;;;4.00;4.00;;;;;22.94;46.10;101005.44;5056051;28;45759;-59
2021/08/02 06:42:21;;;;;;;;;3.00;3.00;;;;;22.91;45.94;101000.38;5038565;28;45369;-55
2021/08/02 06:44:47;;;;;;;;;4.25;3.25;;;;;22.89;46.35;101011.97;5056187;28;46002;-53
2021/08/02 06:47:13;;;;;;;;;4.50;2.75;;;;;22.85;46.26;101003.38;5055841;28;45408;-57
2021/08/02 06:49:38;;;;;;;;;5.00;5.00;;;;;22.81;46.63;101005.38;5055852;28;45565;-58
2021/08/02 06:52:04;;;;;;;;;5.25;3.75;;;;;22.77;46.66;101009.16;5037809;28;45549;-57
2021/08/02 06:54:29;;;;;;;;;5.75;4.00;;;;;22.76;46.56;101010.13;5037631;28;47420;-59
2021/08/02 06:56:55;;;;;;;;;5.50;4.00;;;;;22.75;46.66;101004.91;5055776;28;45457;-56
2021/08/02 06:59:20;;;;;;;;;3.00;3.00;;;;;22.74;46.56;101013.78;5056175;28;45324;-60
2021/08/02 07:01:45;;;;;;;;;6.25;6.00;;;;;22.72;47.07;101020.94;5037700;28;45629;-57
2021/08/02 07:04:10;;;;;;;;;6.00;5.25;;;;;22.71;46.83;101020.09;5056673;28;46032;-58
2021/08/02 07:06:41;;;;;;;;;7.00;6.00;;;;;22.70;47.00;101023.69;5059229;28;45446;-59
2021/08/02 07:09:06;;;;;;;;;5.50;5.00;;;;;22.67;47.01;101013.31;5059419;28;45174;-54
2021/08/02 07:11:31;;;;;;;;;6.00;4.25;;;;;22.65;46.83;101016.06;5059529;28;45401;-59
2021/08/02 07:13:56;;;;;;;;;6.50;3.25;;;;;22.65;47.15;101028.44;5058441;28;63186;-59
2021/08/02 07:16:22;;;;;;;;;7.00;6.00;;;;;22.63;47.25;101027.66;5059432;28;45210;-52
2021/08/02 07:18:47;;;;;;;;;6.50;5.50;;;;;22.62;47.18;101026.81;5059977;28;46127;-54
2021/08/02 07:21:13;;;;;;;;;4.50;3.25;;;;;22.61;47.33;101025.09;5058974;28;45498;-55
2021/08/02 07:23:38;;;;;;;;;6.00;6.00;;;;;22.59;47.37;101024.38;5058642;28;54335;-55
2021/08/02 07:26:04;;;;;;;;;8.00;6.00;;;;;22.60;47.13;101030.50;5058867;28;45486;-50
2021/08/02 07:28:30;;;;;;;;;8.50;6.00;;;;;22.58;47.54;101021.81;5059075;28;45391;-59
2021/08/02 07:30:55;;;;;;;;;10.50;6.50;;;;;22.58;47.58;101024.44;5059208;28;45497;-60
2021/08/02 07:33:22;;;;;;;;;6.75;5.50;;;;;22.57;47.63;101022.75;5059142;28;45341;-61
2021/08/02 07:35:47;;;;;;;;;4.00;4.00;;;;;22.57;47.51;101020.09;5058712;28;45431;-60
2021/08/02 07:38:12;;;;;;;;;6.25;5.25;;;;;22.58;47.63;101022.66;5058902;28;45266;-61
2021/08/02 07:40:38;;;;;;;;;5.50;4.00;;;;;22.60;47.84;101027.84;5059074;28;45483;-61
2021/08/02 07:43:03;;;;;;;;;7.75;5.50;;;;;22.60;47.86;101018.13;5058799;28;45374;-60
2021/08/02 07:45:29;;;;;;;;;5.25;4.75;;;;;22.61;47.74;101019.81;5058759;28;45474;-58
2021/08/02 07:47:54;;;;;;;;;6.50;5.00;;;;;22.63;47.93;101025.03;5058663;28;45363;-50
2021/08/02 07:50:19;;;;;;;;;6.75;6.25;;;;;22.64;47.83;101024.09;5059334;28;45604;-59
2021/08/02 07:52:45;;;;;;;;;4.25;4.25;;;;;22.67;47.92;101026.50;5023582;28;47453;-51
2021/08/02 07:55:12;;;;;;;;;8.25;6.00;;;;;22.68;48.10;101029.09;5058701;28;45287;-52
2021/08/02 07:57:38;;;;;;;;;7.00;4.00;;;;;22.70;47.82;101026.34;5058670;28;45399;-57
2021/08/02 08:00:06;;;;;;;;;6.50;5.50;;;;;22.72;47.83;101031.50;5058493;28;45280;-56
2021/08/02 08:02:31;;;;;;;;;5.50;4.00;;;;;22.71;48.06;101028.03;5058300;28;45487;-55
2021/08/02 08:04:57;;;;;;;;;3.50;3.50;;;;;22.72;48.04;101029.75;5058340;28;45486;-55
2021/08/02 08:07:22;;;;;;;;;4.75;3.75;;;;;22.73;48.01;101027.94;5058638;28;45546;-59
2021/08/02 08:09:47;;;;;;;;;7.00;5.00;;;;;22.72;48.23;101029.75;5058881;28;45536;-60
2021/08/02 08:12:13;;;;;;;;;4.25;3.50;;;;;22.73;47.96;101027.94;5057564;28;46853;-60
2021/08/02 08:14:38;;;;;;;;;7.25;7.00;;;;;22.72;47.97;101024.44;5057629;28;45171;-60
2021/08/02 08:17:04;;;;;;;;;7.75;5.50;;;;;22.74;47.98;101032.28;5057224;28;45349;-59
2021/08/02 08:19:31;;;;;;;;;6.25;6.00;;;;;22.74;48.04;101030.50;5058242;28;45348;-60
2021/08/02 08:21:56;;;;;;;;;4.50;4.50;;;;;22.77;48.31;101026.81;5057897;28;46920;-48
2021/08/02 08:24:21;;;;;;;;;6.00;6.00;;;;;22.78;47.93;101018.78;5058287;28;45487;-59
2021/08/02 08:26:47;;;;;;;;;4.75;4.75;;;;;22.81;47.95;101015.94;5040044;28;45475;-57
2021/08/02 08:29:12;;;;;;;;;5.25;3.75;;;;;22.83;47.95;101014.06;5058365;28;45388;-60
2021/08/02 08:31:37;;;;;;;;;6.25;5.00;;;;;22.86;47.74;101013.03;5057979;28;46005;-61
2021/08/02 08:34:03;;;;;;;;;8.00;7.00;;;;;22.89;47.85;101014.63;5058005;28;45581;-61
2021/08/02 08:36:28;;;;;;;;;5.75;5.75;;;;;22.90;47.59;101021.59;5057731;28;45959;-49
2021/08/02 08:38:54;;;;;;;;;4.00;3.75;;;;;22.91;47.60;101020.66;5058473;28;45306;-60
2021/08/02 08:41:20;;;;;;;;;6.25;4.25;;;;;22.92;47.69;101011.78;5057904;28;45326;-53
2021/08/02 08:43:50;;;;;;;;;3.75;3.75;;;;;22.94;47.65;101015.19;5057850;28;45319;-60
2021/08/02 08:46:21;;;;;;;;;5.50;5.00;;;;;22.95;47.50;101008.97;5057678;28;45364;-56
2021/08/02 08:48:47;;;;;;;;;6.00;4.00;;;;;22.97;47.62;101010.56;5057674;28;45394;-61
2021/08/02 08:51:14;;;;;;;;;4.00;4.00;;;;;22.97;47.88;101010.56;5057562;28;46107;-52
2021/08/02 08:53:42;;;;;;;;;7.00;5.00;;;;;22.97;47.70;101010.56;5057686;28;45336;-55
2021/08/02 08:56:08;;;;;;;;;7.00;6.00;;;;;22.99;47.72;101016.59;5057859;28;45240;-55
2021/08/02 08:58:33;;;;;;;;;6.50;5.25;;;;;23.01;47.70;101021.78;5057829;28;45573;-60
2021/08/02 09:01:00;;;;;;;;;5.50;4.75;;;;;23.03;47.33;101011.97;5039165;28;46993;-59
2021/08/02 09:03:27;;;;;;;;;6.25;5.00;;;;;23.05;47.63;101018.00;5057673;28;45337;-56
2021/08/02 09:06:00;;;;;;;;;4.75;4.75;;;;;23.06;47.64;101017.06;5057525;28;45301;-54
2021/08/02 09:08:26;;;;;;;;;4.00;4.00;;;;;23.07;47.56;101010.84;5057863;28;45355;-55
2021/08/02 09:10:57;;;;;;;;;6.00;5.00;;;;;23.09;47.72;101014.22;5057278;28;45387;-57
2021/08/02 09:13:29;;;;;;;;;5.00;5.00;;;;;23.11;47.65;101014.94;5057179;28;45296;-54
2021/08/02 09:15:56;;;;;;;;;6.00;4.50;;;;;23.14;47.69;101014.78;5057427;28;45419;-52
2021/08/02 09:18:24;;;;;;;;;7.25;5.50;;;;;23.16;47.44;101014.66;5057569;28;45657;-60
2021/08/02 09:21:03;;;;;;;;;6.25;5.00;;;;;23.18;47.35;101010.13;5057228;28;45446;-60
2021/08/02 09:23:29;;;;;;;;;6.00;6.00;;;;;23.22;47.50;101018.75;5057780;28;45289;-60
2021/08/02 09:25:59;;;;;;;;;5.25;3.75;;;;;23.22;47.42;101016.97;5057706;28;45445;-57
2021/08/02 09:28:25;;;;;;;;;5.00;5.00;;;;;23.24;47.52;101012.44;5057081;28;45374;-62
2021/08/02 09:31:04;;;;;;;;;5.75;5.00;;;;;23.26;46.94;101007.88;5057029;28;46054;-57
2021/08/02 09:33:44;;;;;;;;;4.00;4.00;;;;;23.28;46.99;101013.91;5056981;28;45305;-51
2021/08/02 09:36:09;;;;;;;;;5.50;5.50;;;;;23.29;46.93;101010.31;5057006;28;45429;-51
2021/08/02 09:38:35;;;;;;;;;4.00;4.00;;;;;23.33;47.20;101018.06;5057192;28;45526;-59
2021/08/02 09:41:00;;;;;;;;;7.00;5.75;;;;;23.34;46.94;101012.66;5055480;28;48343;-50
2021/08/02 09:43:30;;;;;;;;;5.00;5.00;;;;;23.36;46.99;101010.78;5057160;28;45439;-60
2021/08/02 09:45:58;;;;;;;;;5.25;5.25;;;;;23.40;46.95;101014.94;5057184;28;45400;-59
2021/08/02 09:48:40;;;;;;;;;5.25;5.00;;;;;23.43;46.46;101012.06;5057028;28;45380;-59
2021/08/02 09:51:10;;;;;;;;;7.00;5.00;;;;;23.47;46.54;101012.75;5056572;28;45471;-52
2021/08/02 09:53:53;;;;;;;;;5.50;5.50;;;;;23.51;46.46;101008.94;5056223;28;45417;-55
2021/08/02 09:56:21;;;;;;;;;6.50;5.25;;;;;23.56;45.92;101004.19;5056700;28;45446;-54
2021/08/02 09:58:47;;;;;;;;;4.00;4.00;;;;;23.61;45.94;101004.72;5056991;28;45392;-56
2021/08/02 10:01:19;;;;;;;;;5.00;5.00;;;;;23.65;46.05;101000.06;5055807;28;45435;-54
2021/08/02 10:03:45;;;;;;;;;6.00;4.75;;;;;23.69;45.91;101001.56;5056394;28;45821;-47
2021/08/02 10:06:14;;;;;;;;;5.50;5.25;;;;;23.70;45.59;101000.63;5056505;28;45408;-53
2021/08/02 10:08:39;;;;;;;;;3.00;3.00;;;;;23.72;45.61;100996.09;5056753;28;45474;-55
2021/08/02 10:11:06;;;;;;;;;3.00;3.00;;;;;23.74;45.80;101002.13;5038170;28;47961;-49
2021/08/02 10:13:40;;;;;;;;;3.50;3.50;;;;;23.75;45.28;101002.97;5056513;28;45716;-47
2021/08/02 10:16:14;;;;;;;;;5.00;4.00;;;;;23.76;45.79;100997.56;5056509;28;45380;-46
2021/08/02 10:18:40;;;;;;;;;5.75;3.25;;;;;23.77;45.71;101001.06;5056377;28;45409;-47
2021/08/02 10:21:09;;;;;;;;;3.00;3.00;;;;;23.76;45.74;100997.56;5056408;28;46356;-51
2021/08/02 10:23:35;;;;;;;;;4.25;3.25;;;;;23.75;45.41;101005.63;5056369;28;45816;-49
2021/08/02 10:26:01;;;;;;;;;5.00;3.75;;;;;23.74;45.37;101003.91;5056616;28;45459;-60
2021/08/02 10:28:27;;;;;;;;;5.00;4.00;;;;;23.71;45.20;100999.69;5056728;28;45641;-54
2021/08/02 10:31:05;;;;;;;;;4.50;3.25;;;;;23.71;45.32;101001.47;5056013;28;46161;-59
2021/08/02 10:33:33;;;;;;;;;3.00;3.00;;;;;23.69;45.34;101001.56;5056469;28;45478;-55
2021/08/02 10:36:10;;;;;;;;;4.50;3.00;;;;;23.70;45.21;101003.28;5056556;28;45463;-57
2021/08/02 10:38:39;;;;;;;;;3.25;3.25;;;;;23.69;45.20;101001.56;5055346;28;45459;-57
2021/08/02 10:41:05;;;;;;;;;4.00;3.00;;;;;23.70;45.18;101002.44;5055980;28;45260;-54
2021/08/02 10:43:38;;;;;;;;;4.50;3.50;;;;;23.69;44.98;100993.63;5056186;28;45301;-57
2021/08/02 10:46:27;;;;;;;;;3.75;3.00;;;;;23.69;44.73;101003.38;5055936;28;45300;-57
2021/08/02 10:49:07;;;;;;;;;5.00;4.25;;;;;23.70;44.79;100997.16;5056401;28;45482;-53
2021/08/02 10:51:50;;;;;;;;;5.50;4.25;;;;;23.70;45.01;100997.16;5056357;28;45393;-59
2021/08/02 10:54:17;;;;;;;;;4.00;4.00;;;;;23.69;44.71;100995.44;5055889;28;45486;-56
2021/08/02 10:56:49;;;;;;;;;4.75;4.00;;;;;23.69;44.72;100996.28;5055923;28;45484;-58
2021/08/02 10:59:19;;;;;;;;;5.25;4.75;;;;;23.70;44.80;100999.78;5056071;28;45425;-55
2021/08/02 11:01:47;;;;;;;;;3.00;3.00;;;;;23.70;44.59;100992.69;5055283;28;47026;-57
2021/08/02 11:04:14;;;;;;;;;3.00;3.00;;;;;23.72;44.76;100996.09;5055686;28;45684;-59
2021/08/02 11:06:40;;;;;;;;;4.00;3.00;;;;;23.73;45.13;100997.78;5055515;28;45443;-59
2021/08/02 11:09:05;;;;;;;;;4.00;4.00;;;;;23.75;44.92;100993.25;5055922;28;45515;-59
2021/08/02 11:11:34;;;;;;;;;6.75;4.75;;;;;23.77;44.77;101001.91;5055932;28;45502;-58
2021/08/02 11:14:09;;;;;;;;;3.00;3.00;;;;;23.78;44.68;100997.47;5055694;28;45706;-59
2021/08/02 11:16:40;;;;;;;;;3.75;3.75;;;;;23.76;44.70;100992.25;5055807;28;45411;-57
2021/08/02 11:19:18;;;;;;;;;4.00;4.00;;;;;23.76;44.94;100996.72;5055198;28;45451;-48
2021/08/02 11:21:45;;;;;;;;;4.50;4.00;;;;;23.74;45.27;100988.03;5055535;28;47223;-53
2021/08/02 11:24:11;;;;;;;;;5.25;4.50;;;;;23.74;45.14;100986.25;5055538;28;45195;-60
2021/08/02 11:26:48;;;;;;;;;3.50;3.50;;;;;23.74;45.21;100983.59;5055435;28;45292;-60